sensor_id;sensor_type;location;lat;lon;timestamp;pressure;altitude;pressure_sealevel;temperature;humidity
29935;BME280;19905;53.370;-6.314;2023-03-12T00:00:26;99902.09;;;8.43;100.00
29935;BME280;19905;53.370;-6.314;2023-03-12T00:02:54;99907.50;;;8.41;100.00
29935;BME280;19905;53.370;-6.314;2023-03-12T00:05:24;99900.69;;;8.38;100.00
29935;BME280;19905;53.370;-6.314;2023-03-12T00:07:53;99892.66;;;8.40;100.00
29935;BME280;19905;53.370;-6.314;2023-03-12T00:10:25;99896.69;;;8.33;100.00
29935;BME280;19905;53.370;-6.314;2023-03-12T00:12:54;99882.00;;;8.30;100.00
29935;BME280;19905;53.370;-6.314;2023-03-12T00:15:24;99876.28;;;8.25;100.00
29935;BME280;19905;53.370;-6.314;2023-03-12T00:17:56;99880.59;;;8.26;100.00
29935;BME280;19905;53.370;-6.314;2023-03-12T00:20:25;99875.78;;;8.31;100.00
29935;BME280;19905;53.370;-6.314;2023-03-12T00:22:53;99879.63;;;8.27;100.00
29935;BME280;19905;53.370;-6.314;2023-03-12T00:25:22;99890.75;;;8.31;100.00
29935;BME280;19905;53.370;-6.314;2023-03-12T00:27:51;99890.28;;;8.37;100.00
29935;BME280;19905;53.370;-6.314;2023-03-12T00:30:20;99888.56;;;8.36;100.00
29935;BME280;19905;53.370;-6.314;2023-03-12T00:32:50;99865.13;;;8.33;100.00
29935;BME280;19905;53.370;-6.314;2023-03-12T00:35:20;99874.13;;;8.30;100.00
29935;BME280;19905;53.370;-6.314;2023-03-12T00:37:50;99870.66;;;8.30;100.00
29935;BME280;19905;53.370;-6.314;2023-03-12T00:40:18;99849.47;;;8.31;100.00
29935;BME280;19905;53.370;-6.314;2023-03-12T00:42:47;99854.50;;;8.34;100.00
29935;BME280;19905;53.370;-6.314;2023-03-12T00:45:15;99856.41;;;8.32;100.00
29935;BME280;19905;53.370;-6.314;2023-03-12T00:47:44;99835.25;;;8.23;100.00
29935;BME280;19905;53.370;-6.314;2023-03-12T00:50:13;99831.81;;;8.22;100.00
29935;BME280;19905;53.370;-6.314;2023-03-12T00:52:44;99886.81;;;8.25;100.00
29935;BME280;19905;53.370;-6.314;2023-03-12T00:55:13;99856.16;;;8.35;100.00
29935;BME280;19905;53.370;-6.314;2023-03-12T00:57:42;99849.72;;;8.39;100.00
29935;BME280;19905;53.370;-6.314;2023-03-12T01:00:11;99860.34;;;8.38;100.00
29935;BME280;19905;53.370;-6.314;2023-03-12T01:02:42;99852.25;;;8.30;100.00
29935;BME280;19905;53.370;-6.314;2023-03-12T01:05:12;99857.50;;;8.19;100.00
29935;BME280;19905;53.370;-6.314;2023-03-12T01:07:43;99846.88;;;8.20;100.00
29935;BME280;19905;53.370;-6.314;2023-03-12T01:10:13;99851.19;;;8.10;100.00
29935;BME280;19905;53.370;-6.314;2023-03-12T01:12:42;99872.59;;;8.05;100.00
29935;BME280;19905;53.370;-6.314;2023-03-12T01:15:12;99881.56;;;8.03;100.00
29935;BME280;19905;53.370;-6.314;2023-03-12T01:17:43;99874.16;;;8.08;100.00
29935;BME280;19905;53.370;-6.314;2023-03-12T01:20:12;99881.44;;;8.04;100.00
29935;BME280;19905;53.370;-6.314;2023-03-12T01:22:41;99878.69;;;8.06;100.00
29935;BME280;19905;53.370;-6.314;2023-03-12T01:25:12;99887.81;;;8.02;100.00
29935;BME280;19905;53.370;-6.314;2023-03-12T01:27:43;99888.75;;;8.01;100.00
29935;BME280;19905;53.370;-6.314;2023-03-12T01:30:12;99897.72;;;7.98;100.00
29935;BME280;19905;53.370;-6.314;2023-03-12T01:32:41;99893.66;;;7.94;100.00
29935;BME280;19905;53.370;-6.314;2023-03-12T01:35:10;99909.31;;;7.96;100.00
29935;BME280;19905;53.370;-6.314;2023-03-12T01:37:39;99909.31;;;8.07;100.00
29935;BME280;19905;53.370;-6.314;2023-03-12T01:40:13;99915.50;;;8.06;100.00
29935;BME280;19905;53.370;-6.314;2023-03-12T01:42:51;99909.31;;;8.07;100.00
29935;BME280;19905;53.370;-6.314;2023-03-12T01:48:26;99910.16;;;8.07;100.00
29935;BME280;19905;53.370;-6.314;2023-03-12T01:50:59;99913.75;;;8.06;100.00
29935;BME280;19905;53.370;-6.314;2023-03-12T01:53:28;99928.66;;;8.06;100.00
29935;BME280;19905;53.370;-6.314;2023-03-12T01:55:59;99934.53;;;8.09;100.00
29935;BME280;19905;53.370;-6.314;2023-03-12T01:58:31;99927.09;;;8.14;100.00
29935;BME280;19905;53.370;-6.314;2023-03-12T02:01:01;99933.91;;;8.06;100.00
29935;BME280;19905;53.370;-6.314;2023-03-12T02:03:29;99928.66;;;8.06;100.00
29935;BME280;19905;53.370;-6.314;2023-03-12T02:06:07;99934.66;;;8.08;100.00
29935;BME280;19905;53.370;-6.314;2023-03-12T02:08:41;99922.94;;;8.12;100.00
29935;BME280;19905;53.370;-6.314;2023-03-12T02:11:13;99918.13;;;8.06;100.00
29935;BME280;19905;53.370;-6.314;2023-03-12T02:13:42;99929.88;;;8.02;100.00
29935;BME280;19905;53.370;-6.314;2023-03-12T02:16:11;99954.97;;;8.06;100.00
29935;BME280;19905;53.370;-6.314;2023-03-12T02:18:40;99932.84;;;8.08;100.00
29935;BME280;19905;53.370;-6.314;2023-03-12T02:21:14;99927.81;;;8.05;100.00
29935;BME280;19905;53.370;-6.314;2023-03-12T02:23:55;99937.16;;;7.98;100.00
29935;BME280;19905;53.370;-6.314;2023-03-12T02:26:28;99947.31;;;7.92;100.00
29935;BME280;19905;53.370;-6.314;2023-03-12T02:28:59;99954.84;;;7.96;100.00
29935;BME280;19905;53.370;-6.314;2023-03-12T02:31:34;99965.50;;;7.95;100.00
29935;BME280;19905;53.370;-6.314;2023-03-12T02:34:06;99952.34;;;7.95;100.00
29935;BME280;19905;53.370;-6.314;2023-03-12T02:36:35;99936.78;;;7.92;100.00
29935;BME280;19905;53.370;-6.314;2023-03-12T02:39:04;99941.81;;;7.95;100.00
29935;BME280;19905;53.370;-6.314;2023-03-12T02:41:37;99948.75;;;7.96;100.00
29935;BME280;19905;53.370;-6.314;2023-03-12T02:44:09;99936.81;;;8.03;100.00
29935;BME280;19905;53.370;-6.314;2023-03-12T02:46:41;99948.88;;;7.94;100.00
29935;BME280;19905;53.370;-6.314;2023-03-12T02:49:11;99964.19;;;7.89;100.00
29935;BME280;19905;53.370;-6.314;2023-03-12T02:51:43;99965.50;;;7.95;100.00
29935;BME280;19905;53.370;-6.314;2023-03-12T02:54:14;99950.53;;;7.95;100.00
29935;BME280;19905;53.370;-6.314;2023-03-12T02:56:47;99955.19;;;7.92;100.00
29935;BME280;19905;53.370;-6.314;2023-03-12T02:59:17;99942.88;;;7.92;100.00
29935;BME280;19905;53.370;-6.314;2023-03-12T03:01:51;99939.69;;;7.88;100.00
29935;BME280;19905;53.370;-6.314;2023-03-12T03:04:20;99930.81;;;7.89;100.00
29935;BME280;19905;53.370;-6.314;2023-03-12T03:06:51;99935.13;;;7.90;100.00
29935;BME280;19905;53.370;-6.314;2023-03-12T03:09:20;99932.72;;;7.87;100.00
29935;BME280;19905;53.370;-6.314;2023-03-12T03:11:57;99953.53;;;7.90;100.00
29935;BME280;19905;53.370;-6.314;2023-03-12T03:14:27;99942.31;;;7.88;100.00
29935;BME280;19905;53.370;-6.314;2023-03-12T03:16:56;99935.59;;;7.84;100.00
29935;BME280;19905;53.370;-6.314;2023-03-12T03:19:24;99936.66;;;7.82;100.00
29935;BME280;19905;53.370;-6.314;2023-03-12T03:21:53;99942.28;;;7.77;100.00
29935;BME280;19905;53.370;-6.314;2023-03-12T03:24:28;99951.34;;;7.73;100.00
29935;BME280;19905;53.370;-6.314;2023-03-12T03:26:58;99967.59;;;7.67;100.00
29935;BME280;19905;53.370;-6.314;2023-03-12T03:29:27;99982.75;;;7.63;100.00
29935;BME280;19905;53.370;-6.314;2023-03-12T03:31:56;99980.34;;;7.60;100.00
29935;BME280;19905;53.370;-6.314;2023-03-12T03:34:25;99971.75;;;7.58;100.00
29935;BME280;19905;53.370;-6.314;2023-03-12T03:36:53;99974.25;;;7.60;100.00
29935;BME280;19905;53.370;-6.314;2023-03-12T03:39:22;99979.53;;;7.60;100.00
29935;BME280;19905;53.370;-6.314;2023-03-12T03:41:54;99979.31;;;7.63;100.00
29935;BME280;19905;53.370;-6.314;2023-03-12T03:44:24;99966.63;;;7.57;100.00
29935;BME280;19905;53.370;-6.314;2023-03-12T03:46:53;99967.00;;;7.63;100.00
29935;BME280;19905;53.370;-6.314;2023-03-12T03:49:22;99978.47;;;7.62;100.00
29935;BME280;19905;53.370;-6.314;2023-03-12T03:51:52;99985.53;;;7.62;100.00
29935;BME280;19905;53.370;-6.314;2023-03-12T03:54:21;99987.31;;;7.61;100.00
29935;BME280;19905;53.370;-6.314;2023-03-12T03:56:49;100008.06;;;7.53;100.00
29935;BME280;19905;53.370;-6.314;2023-03-12T03:59:18;100006.97;;;7.56;100.00
29935;BME280;19905;53.370;-6.314;2023-03-12T04:01:48;100005.44;;;7.53;100.00
29935;BME280;19905;53.370;-6.314;2023-03-12T04:04:18;100001.97;;;7.53;100.00
29935;BME280;19905;53.370;-6.314;2023-03-12T04:06:47;99994.94;;;7.53;100.00
29935;BME280;19905;53.370;-6.314;2023-03-12T04:09:17;100011.31;;;7.57;100.00
29935;BME280;19905;53.370;-6.314;2023-03-12T04:11:47;100001.84;;;7.54;100.00
29935;BME280;19905;53.370;-6.314;2023-03-12T04:14:16;99997.69;;;7.52;100.00
29935;BME280;19905;53.370;-6.314;2023-03-12T04:16:44;99995.16;;;7.50;100.00
29935;BME280;19905;53.370;-6.314;2023-03-12T04:19:15;99998.41;;;7.54;100.00
29935;BME280;19905;53.370;-6.314;2023-03-12T04:21:44;100006.16;;;7.55;100.00
29935;BME280;19905;53.370;-6.314;2023-03-12T04:24:15;100006.91;;;7.57;100.00
29935;BME280;19905;53.370;-6.314;2023-03-12T04:26:48;100010.84;;;7.63;100.00
29935;BME280;19905;53.370;-6.314;2023-03-12T04:29:19;100008.47;;;7.71;100.00
29935;BME280;19905;53.370;-6.314;2023-03-12T04:31:49;100015.03;;;7.66;100.00
29935;BME280;19905;53.370;-6.314;2023-03-12T04:34:20;100001.28;;;7.62;100.00
29935;BME280;19905;53.370;-6.314;2023-03-12T04:36:49;99982.63;;;7.65;100.00
29935;BME280;19905;53.370;-6.314;2023-03-12T04:39:19;99982.63;;;7.65;100.00
29935;BME280;19905;53.370;-6.314;2023-03-12T04:41:49;99976.19;;;7.69;100.00
29935;BME280;19905;53.370;-6.314;2023-03-12T04:44:19;99967.38;;;7.70;100.00
29935;BME280;19905;53.370;-6.314;2023-03-12T04:46:48;99967.38;;;7.70;100.00
29935;BME280;19905;53.370;-6.314;2023-03-12T04:49:17;99974.53;;;7.68;100.00
29935;BME280;19905;53.370;-6.314;2023-03-12T04:51:47;99981.94;;;7.63;100.00
29935;BME280;19905;53.370;-6.314;2023-03-12T04:54:15;99974.25;;;7.60;100.00
29935;BME280;19905;53.370;-6.314;2023-03-12T04:56:44;99982.41;;;7.57;100.00
29935;BME280;19905;53.370;-6.314;2023-03-12T04:59:13;99983.72;;;7.62;100.00
29935;BME280;19905;53.370;-6.314;2023-03-12T05:01:42;99980.47;;;7.59;100.00
29935;BME280;19905;53.370;-6.314;2023-03-12T05:04:11;99976.06;;;7.59;100.00
29935;BME280;19905;53.370;-6.314;2023-03-12T05:06:40;99976.53;;;7.53;100.00
29935;BME280;19905;53.370;-6.314;2023-03-12T05:09:10;99988.84;;;7.53;100.00
29935;BME280;19905;53.370;-6.314;2023-03-12T05:11:39;99977.72;;;7.49;100.00
29935;BME280;19905;53.370;-6.314;2023-03-12T05:14:09;99972.69;;;7.46;100.00
29935;BME280;19905;53.370;-6.314;2023-03-12T05:16:38;99969.22;;;7.46;100.00
29935;BME280;19905;53.370;-6.314;2023-03-12T05:19:07;99982.97;;;7.49;100.00
29935;BME280;19905;53.370;-6.314;2023-03-12T05:21:36;99975.44;;;7.56;100.00
29935;BME280;19905;53.370;-6.314;2023-03-12T05:24:05;99981.44;;;7.58;100.00
29935;BME280;19905;53.370;-6.314;2023-03-12T05:26:37;99997.00;;;7.61;100.00
29935;BME280;19905;53.370;-6.314;2023-03-12T05:29:06;99996.53;;;7.67;100.00
29935;BME280;19905;53.370;-6.314;2023-03-12T05:31:36;100003.22;;;7.71;100.00
29935;BME280;19905;53.370;-6.314;2023-03-12T05:34:05;99991.97;;;7.69;100.00
29935;BME280;19905;53.370;-6.314;2023-03-12T05:36:35;99987.53;;;7.70;100.00
29935;BME280;19905;53.370;-6.314;2023-03-12T05:39:04;100001.19;;;7.75;100.00
29935;BME280;19905;53.370;-6.314;2023-03-12T05:41:33;99995.69;;;7.78;100.00
29935;BME280;19905;53.370;-6.314;2023-03-12T05:44:11;99979.44;;;7.73;100.00
29935;BME280;19905;53.370;-6.314;2023-03-12T05:46:44;99971.69;;;7.71;100.00
29935;BME280;19905;53.370;-6.314;2023-03-12T05:49:14;99980.13;;;7.63;100.00
29935;BME280;19905;53.370;-6.314;2023-03-12T05:51:42;99973.22;;;7.62;100.00
29935;BME280;19905;53.370;-6.314;2023-03-12T05:54:11;99977.84;;;7.59;100.00
29935;BME280;19905;53.370;-6.314;2023-03-12T05:56:40;99975.69;;;7.53;100.00
29935;BME280;19905;53.370;-6.314;2023-03-12T05:59:10;99959.69;;;7.56;100.00
29935;BME280;19905;53.370;-6.314;2023-03-12T06:01:40;99964.72;;;7.59;100.00
29935;BME280;19905;53.370;-6.314;2023-03-12T06:04:08;99961.25;;;7.58;100.00
29935;BME280;19905;53.370;-6.314;2023-03-12T06:06:37;99966.84;;;7.54;100.00
29935;BME280;19905;53.370;-6.314;2023-03-12T06:09:07;99962.78;;;7.50;100.00
29935;BME280;19905;53.370;-6.314;2023-03-12T06:11:35;99952.28;;;7.50;100.00
29935;BME280;19905;53.370;-6.314;2023-03-12T06:14:04;99968.25;;;7.47;100.00
29935;BME280;19905;53.370;-6.314;2023-03-12T06:16:34;99972.09;;;7.43;100.00
29935;BME280;19905;53.370;-6.314;2023-03-12T06:19:04;99978.19;;;7.43;100.00
29935;BME280;19905;53.370;-6.314;2023-03-12T06:21:34;99997.91;;;7.49;100.00
29935;BME280;19905;53.370;-6.314;2023-03-12T06:24:11;99993.69;;;7.46;100.00
29935;BME280;19905;53.370;-6.314;2023-03-12T06:26:41;99989.03;;;7.38;100.00
29935;BME280;19905;53.370;-6.314;2023-03-12T06:29:09;99991.75;;;7.37;100.00
29935;BME280;19905;53.370;-6.314;2023-03-12T06:31:40;99987.34;;;7.37;100.00
29935;BME280;19905;53.370;-6.314;2023-03-12T06:34:10;99989.97;;;7.37;100.00
29935;BME280;19905;53.370;-6.314;2023-03-12T06:36:39;99976.84;;;7.37;100.00
29935;BME280;19905;53.370;-6.314;2023-03-12T06:39:08;99989.75;;;7.41;100.00
29935;BME280;19905;53.370;-6.314;2023-03-12T06:41:43;99993.22;;;7.41;100.00
29935;BME280;19905;53.370;-6.314;2023-03-12T06:44:11;99998.59;;;7.39;100.00
29935;BME280;19905;53.370;-6.314;2023-03-12T06:46:41;99993.56;;;7.36;100.00
29935;BME280;19905;53.370;-6.314;2023-03-12T06:49:13;100001.34;;;7.38;100.00
29935;BME280;19905;53.370;-6.314;2023-03-12T06:51:43;99997.84;;;7.37;100.00
29935;BME280;19905;53.370;-6.314;2023-03-12T06:54:12;99980.31;;;7.38;100.00
29935;BME280;19905;53.370;-6.314;2023-03-12T06:56:42;99993.34;;;7.39;100.00
29935;BME280;19905;53.370;-6.314;2023-03-12T06:59:12;99990.59;;;7.41;100.00
29935;BME280;19905;53.370;-6.314;2023-03-12T07:01:42;99987.97;;;7.41;100.00
29935;BME280;19905;53.370;-6.314;2023-03-12T07:04:13;99990.25;;;7.46;100.00
29935;BME280;19905;53.370;-6.314;2023-03-12T07:06:43;99982.69;;;7.41;100.00
29935;BME280;19905;53.370;-6.314;2023-03-12T07:09:16;99975.06;;;7.38;100.00
29935;BME280;19905;53.370;-6.314;2023-03-12T07:11:46;99976.88;;;7.49;100.00
29935;BME280;19905;53.370;-6.314;2023-03-12T07:14:15;99974.38;;;7.47;100.00
29935;BME280;19905;53.370;-6.314;2023-03-12T07:16:45;99974.38;;;7.47;100.00
29935;BME280;19905;53.370;-6.314;2023-03-12T07:19:13;99971.84;;;7.46;100.00
29935;BME280;19905;53.370;-6.314;2023-03-12T07:21:44;99963.63;;;7.50;100.00
29935;BME280;19905;53.370;-6.314;2023-03-12T07:24:13;99969.84;;;7.60;100.00
29935;BME280;19905;53.370;-6.314;2023-03-12T07:26:41;99967.34;;;7.59;100.00
29935;BME280;19905;53.370;-6.314;2023-03-12T07:29:10;99971.41;;;7.63;100.00
29935;BME280;19905;53.370;-6.314;2023-03-12T07:31:39;99966.50;;;7.70;100.00
29935;BME280;19905;53.370;-6.314;2023-03-12T07:34:16;99965.69;;;7.69;100.00
29935;BME280;19905;53.370;-6.314;2023-03-12T07:36:45;99966.41;;;7.71;100.00
29935;BME280;19905;53.370;-6.314;2023-03-12T07:39:16;99969.75;;;7.73;100.00
29935;BME280;19905;53.370;-6.314;2023-03-12T07:41:47;99964.28;;;7.76;100.00
29935;BME280;19905;53.370;-6.314;2023-03-12T07:44:25;99969.31;;;7.79;100.00
29935;BME280;19905;53.370;-6.314;2023-03-12T07:46:54;99952.34;;;7.83;100.00
29935;BME280;19905;53.370;-6.314;2023-03-12T07:49:25;99973.50;;;7.93;100.00
29935;BME280;19905;53.370;-6.314;2023-03-12T07:51:58;99970.88;;;7.93;100.00
29935;BME280;19905;53.370;-6.314;2023-03-12T07:54:29;99963.09;;;7.92;100.00
29935;BME280;19905;53.370;-6.314;2023-03-12T07:56:58;99976.84;;;7.95;100.00
29935;BME280;19905;53.370;-6.314;2023-03-12T07:59:33;99967.28;;;7.94;100.00
29935;BME280;19905;53.370;-6.314;2023-03-12T08:02:03;99961.06;;;7.95;100.00
29935;BME280;19905;53.370;-6.314;2023-03-12T08:04:33;99961.66;;;7.99;100.00
29935;BME280;19905;53.370;-6.314;2023-03-12T08:07:03;99960.47;;;8.03;100.00
29935;BME280;19905;53.370;-6.314;2023-03-12T08:09:35;99959.38;;;8.05;100.00
29935;BME280;19905;53.370;-6.314;2023-03-12T08:12:07;99948.88;;;8.05;100.00
29935;BME280;19905;53.370;-6.314;2023-03-12T08:14:36;99945.88;;;8.10;100.00
29935;BME280;19905;53.370;-6.314;2023-03-12T08:17:06;99953.91;;;8.08;100.00
29935;BME280;19905;53.370;-6.314;2023-03-12T08:19:36;99954.38;;;8.13;100.00
29935;BME280;19905;53.370;-6.314;2023-03-12T08:22:05;99948.41;;;8.11;100.00
29935;BME280;19905;53.370;-6.314;2023-03-12T08:24:34;99968.25;;;8.15;100.00
29935;BME280;19905;53.370;-6.314;2023-03-12T08:27:04;99958.91;;;8.23;100.00
29935;BME280;19905;53.370;-6.314;2023-03-12T08:29:33;99965.47;;;8.28;100.00
29935;BME280;19905;53.370;-6.314;2023-03-12T08:32:02;99964.78;;;8.37;100.00
29935;BME280;19905;53.370;-6.314;2023-03-12T08:34:31;99956.88;;;8.49;100.00
29935;BME280;19905;53.370;-6.314;2023-03-12T08:37:03;99966.31;;;8.51;100.00
29935;BME280;19905;53.370;-6.314;2023-03-12T08:39:32;99966.31;;;8.51;100.00
29935;BME280;19905;53.370;-6.314;2023-03-12T08:42:00;99960.00;;;8.54;100.00
29935;BME280;19905;53.370;-6.314;2023-03-12T08:44:30;99960.81;;;8.54;100.00
29935;BME280;19905;53.370;-6.314;2023-03-12T08:47:00;99948.25;;;8.58;100.00
29935;BME280;19905;53.370;-6.314;2023-03-12T08:49:29;99931.72;;;8.56;100.00
29935;BME280;19905;53.370;-6.314;2023-03-12T08:52:04;99926.94;;;8.61;100.00
29935;BME280;19905;53.370;-6.314;2023-03-12T08:54:35;99913.91;;;8.59;100.00
29935;BME280;19905;53.370;-6.314;2023-03-12T08:57:06;99912.09;;;8.60;100.00
29935;BME280;19905;53.370;-6.314;2023-03-12T08:59:35;99896.91;;;8.63;100.00
29935;BME280;19905;53.370;-6.314;2023-03-12T09:02:04;99880.66;;;8.79;100.00
29935;BME280;19905;53.370;-6.314;2023-03-12T09:04:38;99876.28;;;9.01;100.00
29935;BME280;19905;53.370;-6.314;2023-03-12T09:07:08;99867.41;;;9.23;100.00
29935;BME280;19905;53.370;-6.314;2023-03-12T09:09:48;99859.56;;;9.32;100.00
29935;BME280;19905;53.370;-6.314;2023-03-12T09:12:18;99844.44;;;9.34;100.00
29935;BME280;19905;53.370;-6.314;2023-03-12T09:14:49;99847.81;;;9.36;100.00
29935;BME280;19905;53.370;-6.314;2023-03-12T09:17:34;99838.34;;;9.34;100.00
29935;BME280;19905;53.370;-6.314;2023-03-12T09:20:05;99834.38;;;9.39;100.00
29935;BME280;19905;53.370;-6.314;2023-03-12T09:22:37;99842.72;;;9.45;100.00
29935;BME280;19905;53.370;-6.314;2023-03-12T09:25:07;99845.25;;;9.56;100.00
29935;BME280;19905;53.370;-6.314;2023-03-12T09:27:43;99838.09;;;9.67;100.00
29935;BME280;19905;53.370;-6.314;2023-03-12T09:30:20;99832.53;;;9.71;100.00
29935;BME280;19905;53.370;-6.314;2023-03-12T09:32:56;99827.69;;;9.76;100.00
29935;BME280;19905;53.370;-6.314;2023-03-12T09:35:25;99828.56;;;9.76;100.00
29935;BME280;19905;53.370;-6.314;2023-03-12T09:37:56;99833.84;;;9.76;100.00
29935;BME280;19905;53.370;-6.314;2023-03-12T09:40:28;99817.72;;;9.79;100.00
29935;BME280;19905;53.370;-6.314;2023-03-12T09:43:09;99809.69;;;9.81;100.00
29935;BME280;19905;53.370;-6.314;2023-03-12T09:45:43;99812.84;;;9.75;100.00
29935;BME280;19905;53.370;-6.314;2023-03-12T09:48:15;99804.94;;;9.75;100.00
29935;BME280;19905;53.370;-6.314;2023-03-12T09:50:48;99803.56;;;9.80;100.00
29935;BME280;19905;53.370;-6.314;2023-03-12T09:53:28;99795.81;;;9.88;100.00
29935;BME280;19905;53.370;-6.314;2023-03-12T09:56:03;99778.78;;;10.02;100.00
29935;BME280;19905;53.370;-6.314;2023-03-12T09:58:38;99778.09;;;10.19;100.00
29935;BME280;19905;53.370;-6.314;2023-03-12T10:01:36;99754.91;;;10.23;100.00
29935;BME280;19905;53.370;-6.314;2023-03-12T10:04:17;99735.63;;;10.23;100.00
29935;BME280;19905;53.370;-6.314;2023-03-12T10:06:57;99725.34;;;10.29;100.00
29935;BME280;19905;53.370;-6.314;2023-03-12T10:09:43;99722.69;;;10.39;100.00
29935;BME280;19905;53.370;-6.314;2023-03-12T10:12:23;99716.97;;;10.53;100.00
29935;BME280;19905;53.370;-6.314;2023-03-12T10:15:03;99716.78;;;10.84;100.00
29935;BME280;19905;53.370;-6.314;2023-03-12T10:17:45;99714.03;;;11.13;100.00
29935;BME280;19905;53.370;-6.314;2023-03-12T10:23:27;99702.63;;;12.13;100.00
29935;BME280;19905;53.370;-6.314;2023-03-12T10:26:19;99694.16;;;12.27;100.00
29935;BME280;19905;53.370;-6.314;2023-03-12T10:29:02;99700.22;;;12.19;100.00
29935;BME280;19905;53.370;-6.314;2023-03-12T10:31:36;99694.56;;;12.14;100.00
29935;BME280;19905;53.370;-6.314;2023-03-12T10:34:16;99691.13;;;12.22;100.00
29935;BME280;19905;53.370;-6.314;2023-03-12T10:36:47;99696.78;;;12.27;100.00
29935;BME280;19905;53.370;-6.314;2023-03-12T10:39:24;99686.09;;;12.11;100.00
29935;BME280;19905;53.370;-6.314;2023-03-12T10:41:55;99691.28;;;12.03;100.00
29935;BME280;19905;53.370;-6.314;2023-03-12T10:44:30;99685.38;;;11.91;100.00
29935;BME280;19905;53.370;-6.314;2023-03-12T10:47:06;99675.91;;;11.70;100.00
29935;BME280;19905;53.370;-6.314;2023-03-12T10:49:36;99677.00;;;11.68;100.00
29935;BME280;19905;53.370;-6.314;2023-03-12T10:52:15;99672.34;;;11.80;100.00
29935;BME280;19905;53.370;-6.314;2023-03-12T10:54:48;99681.84;;;11.82;100.00
29935;BME280;19905;53.370;-6.314;2023-03-12T10:57:41;99669.84;;;11.60;100.00
29935;BME280;19905;53.370;-6.314;2023-03-12T11:00:17;99677.16;;;11.49;100.00
29935;BME280;19905;53.370;-6.314;2023-03-12T11:02:55;99677.31;;;11.47;100.00
29935;BME280;19905;53.370;-6.314;2023-03-12T11:05:27;99695.38;;;11.52;100.00
29935;BME280;19905;53.370;-6.314;2023-03-12T11:08:17;99673.13;;;11.44;100.00
29935;BME280;19905;53.370;-6.314;2023-03-12T11:10:47;99662.28;;;11.48;100.00
29935;BME280;19905;53.370;-6.314;2023-03-12T11:13:30;99654.03;;;11.51;100.00
29935;BME280;19905;53.370;-6.314;2023-03-12T11:16:01;99665.56;;;11.59;100.00
29935;BME280;19905;53.370;-6.314;2023-03-12T11:18:37;99661.16;;;11.68;100.00
29935;BME280;19905;53.370;-6.314;2023-03-12T11:21:18;99661.56;;;11.73;100.00
29935;BME280;19905;53.370;-6.314;2023-03-12T11:24:04;99650.22;;;11.99;100.00
29935;BME280;19905;53.370;-6.314;2023-03-12T11:26:38;99649.13;;;12.27;100.00
29935;BME280;19905;53.370;-6.314;2023-03-12T11:29:16;99638.19;;;12.74;100.00
29935;BME280;19905;53.370;-6.314;2023-03-12T11:31:54;99647.94;;;12.73;100.00
29935;BME280;19905;53.370;-6.314;2023-03-12T11:34:27;99629.25;;;12.75;100.00
29935;BME280;19905;53.370;-6.314;2023-03-12T11:37:06;99623.72;;;12.94;100.00
29935;BME280;19905;53.370;-6.314;2023-03-12T11:39:54;99616.28;;;12.98;100.00
29935;BME280;19905;53.370;-6.314;2023-03-12T11:42:39;99607.06;;;12.76;100.00
29935;BME280;19905;53.370;-6.314;2023-03-12T11:45:24;99624.19;;;12.56;100.00
29935;BME280;19905;53.370;-6.314;2023-03-12T11:48:02;99608.97;;;12.58;100.00
29935;BME280;19905;53.370;-6.314;2023-03-12T11:50:41;99624.03;;;12.57;100.00
29935;BME280;19905;53.370;-6.314;2023-03-12T11:53:25;99600.06;;;12.41;100.00
29935;BME280;19905;53.370;-6.314;2023-03-12T11:56:10;99623.47;;;12.28;100.00
29935;BME280;19905;53.370;-6.314;2023-03-12T11:58:51;99613.63;;;12.12;100.00
29935;BME280;19905;53.370;-6.314;2023-03-12T12:01:39;99598.00;;;12.01;100.00
29935;BME280;19905;53.370;-6.314;2023-03-12T12:04:32;99620.13;;;12.00;100.00
29935;BME280;19905;53.370;-6.314;2023-03-12T12:07:17;99608.41;;;12.02;100.00
29935;BME280;19905;53.370;-6.314;2023-03-12T12:09:52;99609.34;;;11.93;100.00
29935;BME280;19905;53.370;-6.314;2023-03-12T12:12:38;99612.06;;;11.83;100.00
29935;BME280;19905;53.370;-6.314;2023-03-12T12:15:21;99612.81;;;11.93;100.00
29935;BME280;19905;53.370;-6.314;2023-03-12T12:18:13;99604.22;;;11.91;100.00
29935;BME280;19905;53.370;-6.314;2023-03-12T12:20:50;99586.78;;;12.07;100.00
29935;BME280;19905;53.370;-6.314;2023-03-12T12:23:29;99580.66;;;12.06;100.00
29935;BME280;19905;53.370;-6.314;2023-03-12T12:26:08;99579.06;;;11.95;100.00
29935;BME280;19905;53.370;-6.314;2023-03-12T12:28:53;99574.31;;;11.99;100.00
29935;BME280;19905;53.370;-6.314;2023-03-12T12:31:30;99568.88;;;12.01;100.00
29935;BME280;19905;53.370;-6.314;2023-03-12T12:37:15;99558.16;;;11.84;100.00
29935;BME280;19905;53.370;-6.314;2023-03-12T12:39:51;99544.97;;;12.10;100.00
29935;BME280;19905;53.370;-6.314;2023-03-12T12:42:27;99541.72;;;12.25;100.00
29935;BME280;19905;53.370;-6.314;2023-03-12T12:45:02;99520.38;;;12.26;100.00
29935;BME280;19905;53.370;-6.314;2023-03-12T12:47:37;99521.31;;;12.43;100.00
29935;BME280;19905;53.370;-6.314;2023-03-12T12:50:13;99512.69;;;12.41;100.00
29935;BME280;19905;53.370;-6.314;2023-03-12T12:52:49;99516.78;;;12.35;100.00
29935;BME280;19905;53.370;-6.314;2023-03-12T12:55:25;99502.06;;;12.33;100.00
29935;BME280;19905;53.370;-6.314;2023-03-12T12:58:01;99497.34;;;12.53;100.00
29935;BME280;19905;53.370;-6.314;2023-03-12T13:00:47;99511.03;;;12.74;100.00
29935;BME280;19905;53.370;-6.314;2023-03-12T13:03:18;99494.41;;;12.64;100.00
29935;BME280;19905;53.370;-6.314;2023-03-12T13:05:55;99485.66;;;12.71;100.00
29935;BME280;19905;53.370;-6.314;2023-03-12T13:08:59;99481.50;;;12.69;100.00
29935;BME280;19905;53.370;-6.314;2023-03-12T13:11:37;99482.34;;;12.69;100.00
29935;BME280;19905;53.370;-6.314;2023-03-12T13:14:20;99474.97;;;12.97;100.00
29935;BME280;19905;53.370;-6.314;2023-03-12T13:19:58;99448.47;;;13.14;100.00
29935;BME280;19905;53.370;-6.314;2023-03-12T13:22:47;99439.56;;;13.23;100.00
29935;BME280;19905;53.370;-6.314;2023-03-12T13:25:33;99439.56;;;13.23;100.00
29935;BME280;19905;53.370;-6.314;2023-03-12T13:28:28;99475.44;;;13.01;100.00